McGehee, Arkansas
Current Conditions -  °F | °C
As of 4:08 AM on Saturday 29 Nov 2014 (Local Time) from KLLQ Reporting Station
Overcast Overcast  
Wind Chill: 51°   Ceiling: 600
Heat Index: 51°   Visibility: 9mi
Dew Point: 48°   Wind: 12mph
Humidity: 89%   Direction: 180°S
Pressure: 30.07"   Gusts: NA
Location:  33.63°N, 91.39°W
Report Text: KLLQ 291008Z AUTO 18010KT 9SM OVC006 11/09 A3007 RMK AO2 T01060089
Loading
Personal Weather Stations






























Interactive Weather Map New forecast layout! Learn more

10-Day Weather Forecast

Advertisements
Track Severe Weather on mobile